In Rescue
 
Open Full Screen Window  High Contrast Mode
November 19, 2019 1:44 PM EST
Present Weather: Mist
Weather Information
Wind Direction
  ---
Wind Speed
  00 kt (0 mph)
Wind Gust
  00 kt (0 mph)
Altimeter
29.80 in
Visibility
5 SM
Temperature
05° C
41° F
Dewpoint
05° C
41° F
Humidity
100%
Sky Condition
Overcast @ 3,000 ft
Scattered @ 2,200 ft
Scattered @ 900 ft
MVFR

METAR KFFX 191844Z AUTO 00000KT 5SM BR SCT009 SCT022 OVC030 05/05 A2980 RMK AO2 T00450045

FAA Disclaimer: The data displayed is for advisory purposes only and is not to be used for flight planning or operations.